sensor_id;sensor_type;location;lat;lon;timestamp;P1;durP1;ratioP1;P2;durP2;ratioP2
32407;SDS011;18869;55.970;37.502;2023-02-28T00:00:14;12.13;;;10.40;;
32407;SDS011;18869;55.970;37.502;2023-02-28T00:02:42;15.07;;;11.10;;
32407;SDS011;18869;55.970;37.502;2023-02-28T00:05:12;11.70;;;10.20;;
32407;SDS011;18869;55.970;37.502;2023-02-28T00:07:41;12.33;;;10.90;;
32407;SDS011;18869;55.970;37.502;2023-02-28T00:10:11;12.17;;;10.97;;
32407;SDS011;18869;55.970;37.502;2023-02-28T00:12:40;16.60;;;11.23;;
32407;SDS011;18869;55.970;37.502;2023-02-28T00:15:09;12.20;;;10.87;;
32407;SDS011;18869;55.970;37.502;2023-02-28T00:17:37;13.33;;;9.33;;
32407;SDS011;18869;55.970;37.502;2023-02-28T00:20:05;12.87;;;10.03;;
32407;SDS011;18869;55.970;37.502;2023-02-28T00:22:35;14.10;;;12.57;;
32407;SDS011;18869;55.970;37.502;2023-02-28T00:25:06;14.20;;;10.37;;
32407;SDS011;18869;55.970;37.502;2023-02-28T00:27:34;11.77;;;10.53;;
32407;SDS011;18869;55.970;37.502;2023-02-28T00:30:04;11.57;;;10.40;;
32407;SDS011;18869;55.970;37.502;2023-02-28T00:32:32;12.87;;;10.90;;
32407;SDS011;18869;55.970;37.502;2023-02-28T00:35:00;13.30;;;9.93;;
32407;SDS011;18869;55.970;37.502;2023-02-28T00:37:29;12.90;;;10.70;;
32407;SDS011;18869;55.970;37.502;2023-02-28T00:39:57;11.97;;;9.37;;
32407;SDS011;18869;55.970;37.502;2023-02-28T00:42:27;12.27;;;9.40;;
32407;SDS011;18869;55.970;37.502;2023-02-28T00:44:55;12.97;;;10.77;;
32407;SDS011;18869;55.970;37.502;2023-02-28T00:47:22;10.30;;;8.93;;
32407;SDS011;18869;55.970;37.502;2023-02-28T00:49:50;10.83;;;9.47;;
32407;SDS011;18869;55.970;37.502;2023-02-28T00:52:17;10.43;;;9.30;;
32407;SDS011;18869;55.970;37.502;2023-02-28T00:54:46;10.90;;;9.00;;
32407;SDS011;18869;55.970;37.502;2023-02-28T00:57:14;10.77;;;9.70;;
32407;SDS011;18869;55.970;37.502;2023-02-28T00:59:43;13.50;;;10.27;;
32407;SDS011;18869;55.970;37.502;2023-02-28T01:02:11;10.60;;;9.37;;
32407;SDS011;18869;55.970;37.502;2023-02-28T01:04:39;12.20;;;10.43;;
32407;SDS011;18869;55.970;37.502;2023-02-28T01:07:06;11.83;;;9.67;;
32407;SDS011;18869;55.970;37.502;2023-02-28T01:09:34;11.20;;;9.93;;
32407;SDS011;18869;55.970;37.502;2023-02-28T01:12:03;12.93;;;10.80;;
32407;SDS011;18869;55.970;37.502;2023-02-28T01:14:32;14.23;;;9.87;;
32407;SDS011;18869;55.970;37.502;2023-02-28T01:17:02;10.93;;;9.37;;
32407;SDS011;18869;55.970;37.502;2023-02-28T01:19:31;12.10;;;9.77;;
32407;SDS011;18869;55.970;37.502;2023-02-28T01:22:00;11.60;;;9.60;;
32407;SDS011;18869;55.970;37.502;2023-02-28T01:24:28;10.97;;;9.37;;
32407;SDS011;18869;55.970;37.502;2023-02-28T01:26:56;12.03;;;10.33;;
32407;SDS011;18869;55.970;37.502;2023-02-28T01:29:23;11.17;;;9.77;;
32407;SDS011;18869;55.970;37.502;2023-02-28T01:31:52;11.10;;;10.00;;
32407;SDS011;18869;55.970;37.502;2023-02-28T01:34:22;10.83;;;8.97;;
32407;SDS011;18869;55.970;37.502;2023-02-28T01:36:50;10.70;;;9.50;;
32407;SDS011;18869;55.970;37.502;2023-02-28T01:39:18;9.90;;;8.97;;
32407;SDS011;18869;55.970;37.502;2023-02-28T01:41:46;11.50;;;10.40;;
32407;SDS011;18869;55.970;37.502;2023-02-28T01:47:20;10.93;;;9.73;;
32407;SDS011;18869;55.970;37.502;2023-02-28T01:49:50;11.40;;;9.13;;
32407;SDS011;18869;55.970;37.502;2023-02-28T01:52:18;10.07;;;9.03;;
32407;SDS011;18869;55.970;37.502;2023-02-28T01:54:47;12.47;;;9.27;;
32407;SDS011;18869;55.970;37.502;2023-02-28T01:57:18;10.53;;;9.27;;
32407;SDS011;18869;55.970;37.502;2023-02-28T01:59:50;10.47;;;9.40;;
32407;SDS011;18869;55.970;37.502;2023-02-28T02:02:20;10.27;;;9.20;;
32407;SDS011;18869;55.970;37.502;2023-02-28T02:04:53;10.50;;;9.40;;
32407;SDS011;18869;55.970;37.502;2023-02-28T02:07:24;12.10;;;10.87;;
32407;SDS011;18869;55.970;37.502;2023-02-28T02:09:59;11.67;;;10.47;;
32407;SDS011;18869;55.970;37.502;2023-02-28T02:12:31;10.73;;;9.67;;
32407;SDS011;18869;55.970;37.502;2023-02-28T02:15:07;10.87;;;9.73;;
32407;SDS011;18869;55.970;37.502;2023-02-28T02:17:39;10.83;;;9.40;;
32407;SDS011;18869;55.970;37.502;2023-02-28T02:23:09;10.90;;;9.53;;
32407;SDS011;18869;55.970;37.502;2023-02-28T02:25:50;10.63;;;9.27;;
32407;SDS011;18869;55.970;37.502;2023-02-28T02:28:24;11.43;;;10.33;;
32407;SDS011;18869;55.970;37.502;2023-02-28T02:34:16;9.77;;;8.87;;
32407;SDS011;18869;55.970;37.502;2023-02-28T02:37:03;9.33;;;8.07;;
32407;SDS011;18869;55.970;37.502;2023-02-28T02:39:44;9.47;;;8.50;;
32407;SDS011;18869;55.970;37.502;2023-02-28T02:42:20;8.93;;;8.10;;
32407;SDS011;18869;55.970;37.502;2023-02-28T02:44:51;9.80;;;8.73;;
32407;SDS011;18869;55.970;37.502;2023-02-28T02:47:26;10.53;;;9.50;;
32407;SDS011;18869;55.970;37.502;2023-02-28T02:49:58;9.47;;;8.57;;
32407;SDS011;18869;55.970;37.502;2023-02-28T02:52:31;10.50;;;9.47;;
32407;SDS011;18869;55.970;37.502;2023-02-28T02:55:05;10.43;;;9.17;;
32407;SDS011;18869;55.970;37.502;2023-02-28T02:57:35;10.87;;;9.80;;
32407;SDS011;18869;55.970;37.502;2023-02-28T03:00:05;10.77;;;9.83;;
32407;SDS011;18869;55.970;37.502;2023-02-28T03:02:35;11.67;;;9.43;;
32407;SDS011;18869;55.970;37.502;2023-02-28T03:05:06;12.07;;;9.60;;
32407;SDS011;18869;55.970;37.502;2023-02-28T03:07:37;9.53;;;8.20;;
32407;SDS011;18869;55.970;37.502;2023-02-28T03:13:12;10.00;;;8.97;;
32407;SDS011;18869;55.970;37.502;2023-02-28T03:15:58;10.33;;;9.33;;
32407;SDS011;18869;55.970;37.502;2023-02-28T03:18:37;9.47;;;8.57;;
32407;SDS011;18869;55.970;37.502;2023-02-28T03:21:11;10.60;;;9.60;;
32407;SDS011;18869;55.970;37.502;2023-02-28T03:23:42;9.20;;;8.13;;
32407;SDS011;18869;55.970;37.502;2023-02-28T03:26:13;10.80;;;9.80;;
32407;SDS011;18869;55.970;37.502;2023-02-28T03:28:50;10.03;;;9.13;;
32407;SDS011;18869;55.970;37.502;2023-02-28T03:31:20;11.13;;;10.03;;
32407;SDS011;18869;55.970;37.502;2023-02-28T03:33:51;9.73;;;8.83;;
32407;SDS011;18869;55.970;37.502;2023-02-28T03:36:24;9.53;;;8.63;;
32407;SDS011;18869;55.970;37.502;2023-02-28T03:38:55;8.57;;;7.87;;
32407;SDS011;18869;55.970;37.502;2023-02-28T03:41:29;9.13;;;7.83;;
32407;SDS011;18869;55.970;37.502;2023-02-28T03:43:59;10.37;;;9.07;;
32407;SDS011;18869;55.970;37.502;2023-02-28T03:46:31;9.43;;;8.53;;
32407;SDS011;18869;55.970;37.502;2023-02-28T03:49:02;10.13;;;7.80;;
32407;SDS011;18869;55.970;37.502;2023-02-28T03:51:34;9.43;;;8.50;;
32407;SDS011;18869;55.970;37.502;2023-02-28T03:54:04;8.67;;;7.73;;
32407;SDS011;18869;55.970;37.502;2023-02-28T03:56:34;9.53;;;8.50;;
32407;SDS011;18869;55.970;37.502;2023-02-28T03:59:07;10.03;;;9.13;;
32407;SDS011;18869;55.970;37.502;2023-02-28T04:01:39;8.43;;;7.63;;
32407;SDS011;18869;55.970;37.502;2023-02-28T04:04:08;10.13;;;9.17;;
32407;SDS011;18869;55.970;37.502;2023-02-28T04:06:37;9.60;;;8.80;;
32407;SDS011;18869;55.970;37.502;2023-02-28T04:09:05;9.60;;;8.70;;
32407;SDS011;18869;55.970;37.502;2023-02-28T04:11:36;9.37;;;8.47;;
32407;SDS011;18869;55.970;37.502;2023-02-28T04:14:05;8.47;;;7.30;;
32407;SDS011;18869;55.970;37.502;2023-02-28T04:16:35;11.73;;;9.27;;
32407;SDS011;18869;55.970;37.502;2023-02-28T04:19:05;9.50;;;8.60;;
32407;SDS011;18869;55.970;37.502;2023-02-28T04:21:33;9.03;;;8.13;;
32407;SDS011;18869;55.970;37.502;2023-02-28T04:24:06;10.67;;;9.33;;
32407;SDS011;18869;55.970;37.502;2023-02-28T04:26:40;9.17;;;8.37;;
32407;SDS011;18869;55.970;37.502;2023-02-28T04:29:09;9.90;;;8.90;;
32407;SDS011;18869;55.970;37.502;2023-02-28T04:31:38;8.13;;;7.43;;
32407;SDS011;18869;55.970;37.502;2023-02-28T04:34:07;8.77;;;7.93;;
32407;SDS011;18869;55.970;37.502;2023-02-28T04:36:35;10.03;;;9.17;;
32407;SDS011;18869;55.970;37.502;2023-02-28T04:39:02;8.20;;;7.40;;
32407;SDS011;18869;55.970;37.502;2023-02-28T04:41:32;9.03;;;8.13;;
32407;SDS011;18869;55.970;37.502;2023-02-28T04:44:00;8.00;;;7.20;;
32407;SDS011;18869;55.970;37.502;2023-02-28T04:46:28;8.53;;;7.77;;
32407;SDS011;18869;55.970;37.502;2023-02-28T04:48:56;8.20;;;7.53;;
32407;SDS011;18869;55.970;37.502;2023-02-28T04:51:24;8.33;;;7.53;;
32407;SDS011;18869;55.970;37.502;2023-02-28T04:53:52;8.13;;;7.43;;
32407;SDS011;18869;55.970;37.502;2023-02-28T04:56:20;9.97;;;8.03;;
32407;SDS011;18869;55.970;37.502;2023-02-28T04:58:49;8.43;;;7.67;;
32407;SDS011;18869;55.970;37.502;2023-02-28T05:01:19;8.97;;;8.30;;
32407;SDS011;18869;55.970;37.502;2023-02-28T05:03:49;9.33;;;8.37;;
32407;SDS011;18869;55.970;37.502;2023-02-28T05:06:17;7.70;;;7.00;;
32407;SDS011;18869;55.970;37.502;2023-02-28T05:08:46;7.83;;;7.13;;
32407;SDS011;18869;55.970;37.502;2023-02-28T05:11:15;8.60;;;7.80;;
32407;SDS011;18869;55.970;37.502;2023-02-28T05:13:44;7.80;;;7.00;;
32407;SDS011;18869;55.970;37.502;2023-02-28T05:16:12;8.10;;;7.30;;
32407;SDS011;18869;55.970;37.502;2023-02-28T05:18:41;7.87;;;7.17;;
32407;SDS011;18869;55.970;37.502;2023-02-28T05:21:17;11.43;;;7.83;;
32407;SDS011;18869;55.970;37.502;2023-02-28T05:23:52;8.27;;;7.47;;
32407;SDS011;18869;55.970;37.502;2023-02-28T05:26:20;7.10;;;6.40;;
32407;SDS011;18869;55.970;37.502;2023-02-28T05:28:48;7.50;;;6.80;;
32407;SDS011;18869;55.970;37.502;2023-02-28T05:31:17;7.07;;;6.43;;
32407;SDS011;18869;55.970;37.502;2023-02-28T05:33:45;7.63;;;6.93;;
32407;SDS011;18869;55.970;37.502;2023-02-28T05:36:12;6.97;;;6.30;;
32407;SDS011;18869;55.970;37.502;2023-02-28T05:38:40;7.70;;;7.00;;
32407;SDS011;18869;55.970;37.502;2023-02-28T05:41:08;7.33;;;6.63;;
32407;SDS011;18869;55.970;37.502;2023-02-28T05:43:38;6.50;;;5.73;;
32407;SDS011;18869;55.970;37.502;2023-02-28T05:46:07;6.53;;;6.03;;
32407;SDS011;18869;55.970;37.502;2023-02-28T05:48:38;6.70;;;6.10;;
32407;SDS011;18869;55.970;37.502;2023-02-28T05:51:07;7.10;;;6.50;;
32407;SDS011;18869;55.970;37.502;2023-02-28T05:53:35;6.97;;;6.30;;
32407;SDS011;18869;55.970;37.502;2023-02-28T05:56:03;6.93;;;6.33;;
32407;SDS011;18869;55.970;37.502;2023-02-28T05:58:31;7.13;;;6.63;;
32407;SDS011;18869;55.970;37.502;2023-02-28T06:01:00;7.37;;;6.43;;
32407;SDS011;18869;55.970;37.502;2023-02-28T06:03:47;7.83;;;7.23;;
32407;SDS011;18869;55.970;37.502;2023-02-28T06:06:16;7.60;;;6.93;;
32407;SDS011;18869;55.970;37.502;2023-02-28T06:08:46;6.20;;;5.70;;
32407;SDS011;18869;55.970;37.502;2023-02-28T06:11:14;6.37;;;5.87;;
32407;SDS011;18869;55.970;37.502;2023-02-28T06:13:41;6.40;;;5.90;;
32407;SDS011;18869;55.970;37.502;2023-02-28T06:16:09;6.17;;;5.70;;
32407;SDS011;18869;55.970;37.502;2023-02-28T06:18:38;6.80;;;6.20;;
32407;SDS011;18869;55.970;37.502;2023-02-28T06:21:07;5.93;;;5.33;;
32407;SDS011;18869;55.970;37.502;2023-02-28T06:23:35;5.93;;;5.43;;
32407;SDS011;18869;55.970;37.502;2023-02-28T06:26:02;6.67;;;6.07;;
32407;SDS011;18869;55.970;37.502;2023-02-28T06:28:30;7.23;;;6.63;;
32407;SDS011;18869;55.970;37.502;2023-02-28T06:30:57;6.70;;;6.00;;
32407;SDS011;18869;55.970;37.502;2023-02-28T06:33:25;5.93;;;5.43;;
32407;SDS011;18869;55.970;37.502;2023-02-28T06:35:52;7.20;;;5.93;;
32407;SDS011;18869;55.970;37.502;2023-02-28T06:38:22;7.20;;;6.50;;
32407;SDS011;18869;55.970;37.502;2023-02-28T06:40:52;7.70;;;7.10;;
32407;SDS011;18869;55.970;37.502;2023-02-28T06:43:21;6.47;;;5.97;;
32407;SDS011;18869;55.970;37.502;2023-02-28T06:45:48;6.73;;;6.13;;
32407;SDS011;18869;55.970;37.502;2023-02-28T06:48:17;6.77;;;6.20;;
32407;SDS011;18869;55.970;37.502;2023-02-28T06:50:44;6.57;;;5.97;;
32407;SDS011;18869;55.970;37.502;2023-02-28T06:53:12;6.70;;;6.20;;
32407;SDS011;18869;55.970;37.502;2023-02-28T06:55:42;7.47;;;6.87;;
32407;SDS011;18869;55.970;37.502;2023-02-28T06:58:09;7.07;;;6.40;;
32407;SDS011;18869;55.970;37.502;2023-02-28T07:00:44;7.17;;;6.03;;
32407;SDS011;18869;55.970;37.502;2023-02-28T07:03:15;6.53;;;6.07;;
32407;SDS011;18869;55.970;37.502;2023-02-28T07:05:44;8.23;;;7.50;;
32407;SDS011;18869;55.970;37.502;2023-02-28T07:08:12;7.27;;;6.27;;
32407;SDS011;18869;55.970;37.502;2023-02-28T07:10:39;7.40;;;6.80;;
32407;SDS011;18869;55.970;37.502;2023-02-28T07:13:10;6.97;;;6.37;;
32407;SDS011;18869;55.970;37.502;2023-02-28T07:15:37;6.87;;;6.27;;
32407;SDS011;18869;55.970;37.502;2023-02-28T07:18:04;7.17;;;6.47;;
32407;SDS011;18869;55.970;37.502;2023-02-28T07:20:32;7.00;;;6.50;;
32407;SDS011;18869;55.970;37.502;2023-02-28T07:23:00;8.00;;;7.40;;
32407;SDS011;18869;55.970;37.502;2023-02-28T07:25:28;7.07;;;6.47;;
32407;SDS011;18869;55.970;37.502;2023-02-28T07:27:58;6.67;;;6.07;;
32407;SDS011;18869;55.970;37.502;2023-02-28T07:30:25;7.27;;;6.27;;
32407;SDS011;18869;55.970;37.502;2023-02-28T07:32:53;6.40;;;5.80;;
32407;SDS011;18869;55.970;37.502;2023-02-28T07:35:22;7.03;;;6.43;;
32407;SDS011;18869;55.970;37.502;2023-02-28T07:37:50;6.80;;;6.10;;
32407;SDS011;18869;55.970;37.502;2023-02-28T07:40:18;6.50;;;6.00;;
32407;SDS011;18869;55.970;37.502;2023-02-28T07:42:45;6.70;;;6.20;;
32407;SDS011;18869;55.970;37.502;2023-02-28T07:45:17;6.90;;;6.20;;
32407;SDS011;18869;55.970;37.502;2023-02-28T07:47:45;7.10;;;5.90;;
32407;SDS011;18869;55.970;37.502;2023-02-28T07:50:14;7.70;;;7.00;;
32407;SDS011;18869;55.970;37.502;2023-02-28T07:52:42;8.03;;;7.33;;
32407;SDS011;18869;55.970;37.502;2023-02-28T07:55:10;6.50;;;5.87;;
32407;SDS011;18869;55.970;37.502;2023-02-28T07:57:39;6.70;;;5.93;;
32407;SDS011;18869;55.970;37.502;2023-02-28T08:00:08;6.70;;;6.20;;
32407;SDS011;18869;55.970;37.502;2023-02-28T08:02:38;7.50;;;6.10;;
32407;SDS011;18869;55.970;37.502;2023-02-28T08:05:07;6.47;;;5.77;;
32407;SDS011;18869;55.970;37.502;2023-02-28T08:07:37;7.37;;;6.67;;
32407;SDS011;18869;55.970;37.502;2023-02-28T08:10:05;7.20;;;6.50;;
32407;SDS011;18869;55.970;37.502;2023-02-28T08:12:35;7.53;;;6.47;;
32407;SDS011;18869;55.970;37.502;2023-02-28T08:15:03;6.20;;;5.70;;
32407;SDS011;18869;55.970;37.502;2023-02-28T08:17:31;6.50;;;5.90;;
32407;SDS011;18869;55.970;37.502;2023-02-28T08:20:00;6.97;;;6.33;;
32407;SDS011;18869;55.970;37.502;2023-02-28T08:22:29;6.80;;;6.20;;
32407;SDS011;18869;55.970;37.502;2023-02-28T08:24:57;7.63;;;6.93;;
32407;SDS011;18869;55.970;37.502;2023-02-28T08:27:25;6.53;;;6.03;;
32407;SDS011;18869;55.970;37.502;2023-02-28T08:29:53;9.33;;;6.17;;
32407;SDS011;18869;55.970;37.502;2023-02-28T08:32:24;6.93;;;6.33;;
32407;SDS011;18869;55.970;37.502;2023-02-28T08:34:52;6.83;;;6.23;;
32407;SDS011;18869;55.970;37.502;2023-02-28T08:37:20;7.70;;;7.00;;
32407;SDS011;18869;55.970;37.502;2023-02-28T08:39:48;6.17;;;5.63;;
32407;SDS011;18869;55.970;37.502;2023-02-28T08:42:16;6.07;;;5.57;;
32407;SDS011;18869;55.970;37.502;2023-02-28T08:44:43;6.73;;;6.13;;
32407;SDS011;18869;55.970;37.502;2023-02-28T08:47:11;6.00;;;5.50;;
32407;SDS011;18869;55.970;37.502;2023-02-28T08:49:38;6.13;;;5.63;;
32407;SDS011;18869;55.970;37.502;2023-02-28T08:52:07;5.90;;;5.40;;
32407;SDS011;18869;55.970;37.502;2023-02-28T08:54:36;6.37;;;5.87;;
32407;SDS011;18869;55.970;37.502;2023-02-28T08:57:04;6.93;;;6.23;;
32407;SDS011;18869;55.970;37.502;2023-02-28T08:59:32;7.23;;;6.53;;
32407;SDS011;18869;55.970;37.502;2023-02-28T09:02:00;7.07;;;6.43;;
32407;SDS011;18869;55.970;37.502;2023-02-28T09:04:28;6.47;;;5.90;;
32407;SDS011;18869;55.970;37.502;2023-02-28T09:06:56;6.77;;;6.07;;
32407;SDS011;18869;55.970;37.502;2023-02-28T09:09:24;7.17;;;6.50;;
32407;SDS011;18869;55.970;37.502;2023-02-28T09:11:57;8.60;;;6.50;;
32407;SDS011;18869;55.970;37.502;2023-02-28T09:14:25;6.43;;;5.93;;
32407;SDS011;18869;55.970;37.502;2023-02-28T09:16:53;7.77;;;6.30;;
32407;SDS011;18869;55.970;37.502;2023-02-28T09:19:20;6.67;;;6.17;;
32407;SDS011;18869;55.970;37.502;2023-02-28T09:21:48;6.77;;;6.07;;
32407;SDS011;18869;55.970;37.502;2023-02-28T09:24:16;6.33;;;5.73;;
32407;SDS011;18869;55.970;37.502;2023-02-28T09:26:46;6.80;;;6.07;;
32407;SDS011;18869;55.970;37.502;2023-02-28T09:29:14;7.57;;;6.80;;
32407;SDS011;18869;55.970;37.502;2023-02-28T09:31:43;7.40;;;6.80;;
32407;SDS011;18869;55.970;37.502;2023-02-28T09:34:11;6.30;;;5.77;;
32407;SDS011;18869;55.970;37.502;2023-02-28T09:36:38;5.87;;;5.37;;
32407;SDS011;18869;55.970;37.502;2023-02-28T09:39:08;5.53;;;5.13;;
32407;SDS011;18869;55.970;37.502;2023-02-28T09:41:38;5.57;;;5.17;;
32407;SDS011;18869;55.970;37.502;2023-02-28T09:44:13;6.23;;;5.73;;
32407;SDS011;18869;55.970;37.502;2023-02-28T09:46:46;6.90;;;6.20;;
32407;SDS011;18869;55.970;37.502;2023-02-28T09:49:19;11.00;;;7.00;;
32407;SDS011;18869;55.970;37.502;2023-02-28T09:51:50;6.13;;;5.50;;
32407;SDS011;18869;55.970;37.502;2023-02-28T09:54:23;6.67;;;6.03;;
32407;SDS011;18869;55.970;37.502;2023-02-28T09:56:52;6.80;;;6.20;;
32407;SDS011;18869;55.970;37.502;2023-02-28T09:59:31;6.03;;;5.53;;
32407;SDS011;18869;55.970;37.502;2023-02-28T10:02:10;6.00;;;5.50;;
32407;SDS011;18869;55.970;37.502;2023-02-28T10:04:46;7.03;;;6.43;;
32407;SDS011;18869;55.970;37.502;2023-02-28T10:07:23;6.83;;;6.23;;
32407;SDS011;18869;55.970;37.502;2023-02-28T10:10:02;7.57;;;6.97;;
32407;SDS011;18869;55.970;37.502;2023-02-28T10:12:32;6.00;;;5.50;;
32407;SDS011;18869;55.970;37.502;2023-02-28T10:15:01;6.90;;;6.30;;
32407;SDS011;18869;55.970;37.502;2023-02-28T10:17:34;6.00;;;5.60;;
32407;SDS011;18869;55.970;37.502;2023-02-28T10:20:05;7.30;;;6.20;;
32407;SDS011;18869;55.970;37.502;2023-02-28T10:22:38;7.13;;;6.20;;
32407;SDS011;18869;55.970;37.502;2023-02-28T10:25:15;6.73;;;6.17;;
32407;SDS011;18869;55.970;37.502;2023-02-28T10:27:44;6.80;;;6.17;;
32407;SDS011;18869;55.970;37.502;2023-02-28T10:30:13;7.47;;;6.90;;
32407;SDS011;18869;55.970;37.502;2023-02-28T10:32:42;7.73;;;7.13;;
32407;SDS011;18869;55.970;37.502;2023-02-28T10:35:15;7.50;;;6.80;;
32407;SDS011;18869;55.970;37.502;2023-02-28T10:37:44;6.63;;;5.90;;
32407;SDS011;18869;55.970;37.502;2023-02-28T10:40:25;7.77;;;6.73;;
32407;SDS011;18869;55.970;37.502;2023-02-28T10:42:56;7.47;;;6.77;;
32407;SDS011;18869;55.970;37.502;2023-02-28T10:45:29;6.57;;;5.97;;
32407;SDS011;18869;55.970;37.502;2023-02-28T10:48:03;6.40;;;5.80;;
32407;SDS011;18869;55.970;37.502;2023-02-28T10:50:33;6.97;;;6.27;;
32407;SDS011;18869;55.970;37.502;2023-02-28T10:53:21;8.97;;;5.77;;
32407;SDS011;18869;55.970;37.502;2023-02-28T10:56:02;7.63;;;6.73;;
32407;SDS011;18869;55.970;37.502;2023-02-28T10:58:44;7.70;;;7.00;;
32407;SDS011;18869;55.970;37.502;2023-02-28T11:01:19;7.73;;;6.70;;
32407;SDS011;18869;55.970;37.502;2023-02-28T11:03:50;6.83;;;6.23;;
32407;SDS011;18869;55.970;37.502;2023-02-28T11:06:20;8.03;;;6.80;;
32407;SDS011;18869;55.970;37.502;2023-02-28T11:08:51;8.27;;;6.27;;
32407;SDS011;18869;55.970;37.502;2023-02-28T11:11:22;8.80;;;7.23;;
32407;SDS011;18869;55.970;37.502;2023-02-28T11:13:53;6.60;;;5.93;;
32407;SDS011;18869;55.970;37.502;2023-02-28T11:16:24;8.77;;;6.90;;
32407;SDS011;18869;55.970;37.502;2023-02-28T11:19:00;7.53;;;6.93;;
32407;SDS011;18869;55.970;37.502;2023-02-28T11:21:30;7.30;;;6.60;;
32407;SDS011;18869;55.970;37.502;2023-02-28T11:24:00;6.23;;;5.70;;
32407;SDS011;18869;55.970;37.502;2023-02-28T11:26:40;6.83;;;6.00;;
32407;SDS011;18869;55.970;37.502;2023-02-28T11:29:10;8.63;;;7.70;;
32407;SDS011;18869;55.970;37.502;2023-02-28T11:31:41;8.43;;;7.53;;
32407;SDS011;18869;55.970;37.502;2023-02-28T11:36:54;7.10;;;6.50;;
32407;SDS011;18869;55.970;37.502;2023-02-28T11:39:22;7.07;;;6.37;;
32407;SDS011;18869;55.970;37.502;2023-02-28T11:41:58;7.43;;;6.73;;
32407;SDS011;18869;55.970;37.502;2023-02-28T11:44:39;7.03;;;6.33;;
32407;SDS011;18869;55.970;37.502;2023-02-28T11:47:27;6.73;;;6.13;;
32407;SDS011;18869;55.970;37.502;2023-02-28T11:50:08;7.17;;;6.47;;
32407;SDS011;18869;55.970;37.502;2023-02-28T11:52:46;9.60;;;6.77;;
32407;SDS011;18869;55.970;37.502;2023-02-28T11:55:32;8.10;;;7.30;;
32407;SDS011;18869;55.970;37.502;2023-02-28T11:58:14;7.63;;;6.93;;
32407;SDS011;18869;55.970;37.502;2023-02-28T12:00:52;8.40;;;6.13;;
32407;SDS011;18869;55.970;37.502;2023-02-28T12:03:27;7.93;;;7.23;;
32407;SDS011;18869;55.970;37.502;2023-02-28T12:06:14;7.17;;;6.23;;
32407;SDS011;18869;55.970;37.502;2023-02-28T12:09:00;8.10;;;7.17;;
32407;SDS011;18869;55.970;37.502;2023-02-28T12:11:34;10.13;;;7.80;;
32407;SDS011;18869;55.970;37.502;2023-02-28T12:14:18;7.57;;;6.67;;
32407;SDS011;18869;55.970;37.502;2023-02-28T12:17:13;7.03;;;6.20;;
32407;SDS011;18869;55.970;37.502;2023-02-28T12:19:48;8.40;;;6.67;;
32407;SDS011;18869;55.970;37.502;2023-02-28T12:22:23;7.53;;;6.93;;
32407;SDS011;18869;55.970;37.502;2023-02-28T12:28:03;8.87;;;7.37;;
32407;SDS011;18869;55.970;37.502;2023-02-28T12:30:35;9.47;;;6.47;;
32407;SDS011;18869;55.970;37.502;2023-02-28T12:33:07;6.50;;;5.87;;
32407;SDS011;18869;55.970;37.502;2023-02-28T12:35:43;8.67;;;7.13;;
32407;SDS011;18869;55.970;37.502;2023-02-28T12:38:16;8.20;;;7.50;;
32407;SDS011;18869;55.970;37.502;2023-02-28T12:40:49;7.20;;;6.40;;
32407;SDS011;18869;55.970;37.502;2023-02-28T12:43:19;7.10;;;6.37;;
32407;SDS011;18869;55.970;37.502;2023-02-28T12:45:50;7.63;;;6.93;;
32407;SDS011;18869;55.970;37.502;2023-02-28T12:48:20;6.80;;;6.23;;
32407;SDS011;18869;55.970;37.502;2023-02-28T12:50:56;6.73;;;6.13;;
32407;SDS011;18869;55.970;37.502;2023-02-28T12:53:25;6.73;;;6.03;;
32407;SDS011;18869;55.970;37.502;2023-02-28T12:55:57;6.13;;;5.63;;
32407;SDS011;18869;55.970;37.502;2023-02-28T12:58:36;6.57;;;5.97;;
32407;SDS011;18869;55.970;37.502;2023-02-28T13:01:19;6.30;;;5.90;;
32407;SDS011;18869;55.970;37.502;2023-02-28T13:04:07;6.00;;;5.50;;
32407;SDS011;18869;55.970;37.502;2023-02-28T13:07:10;6.40;;;5.80;;
32407;SDS011;18869;55.970;37.502;2023-02-28T13:09:56;6.57;;;5.97;;
32407;SDS011;18869;55.970;37.502;2023-02-28T13:12:25;7.47;;;5.60;;
32407;SDS011;18869;55.970;37.502;2023-02-28T13:15:01;7.20;;;6.60;;
32407;SDS011;18869;55.970;37.502;2023-02-28T13:17:38;6.60;;;6.00;;
32407;SDS011;18869;55.970;37.502;2023-02-28T13:20:14;7.30;;;5.93;;
32407;SDS011;18869;55.970;37.502;2023-02-28T13:22:45;6.03;;;5.53;;
32407;SDS011;18869;55.970;37.502;2023-02-28T13:31:33;5.83;;;5.33;;
32407;SDS011;18869;55.970;37.502;2023-02-28T13:34:15;6.80;;;6.10;;
32407;SDS011;18869;55.970;37.502;2023-02-28T13:36:43;6.17;;;5.70;;
32407;SDS011;18869;55.970;37.502;2023-02-28T13:42:33;5.57;;;5.07;;
32407;SDS011;18869;55.970;37.502;2023-02-28T13:45:25;6.50;;;5.90;;
32407;SDS011;18869;55.970;37.502;2023-02-28T13:47:55;6.27;;;5.70;;
32407;SDS011;18869;55.970;37.502;2023-02-28T13:50:29;7.90;;;7.10;;
32407;SDS011;18869;55.970;37.502;2023-02-28T13:55:57;6.27;;;5.77;;
32407;SDS011;18869;55.970;37.502;2023-02-28T13:58:35;6.90;;;5.70;;
32407;SDS011;18869;55.970;37.502;2023-02-28T14:01:14;6.70;;;6.10;;
32407;SDS011;18869;55.970;37.502;2023-02-28T14:03:53;7.00;;;6.40;;
32407;SDS011;18869;55.970;37.502;2023-02-28T14:06:38;7.33;;;5.60;;
32407;SDS011;18869;55.970;37.502;2023-02-28T14:09:15;5.67;;;5.17;;
32407;SDS011;18869;55.970;37.502;2023-02-28T14:11:46;6.63;;;6.07;;
32407;SDS011;18869;55.970;37.502;2023-02-28T14:17:18;6.07;;;5.37;;
32407;SDS011;18869;55.970;37.502;2023-02-28T14:19:46;6.73;;;6.13;;
32407;SDS011;18869;55.970;37.502;2023-02-28T14:22:18;6.30;;;5.80;;
32407;SDS011;18869;55.970;37.502;2023-02-28T14:25:12;6.27;;;5.70;;
32407;SDS011;18869;55.970;37.502;2023-02-28T14:27:48;6.63;;;6.07;;
32407;SDS011;18869;55.970;37.502;2023-02-28T14:30:36;6.10;;;5.47;;
32407;SDS011;18869;55.970;37.502;2023-02-28T14:33:24;6.50;;;5.90;;
32407;SDS011;18869;55.970;37.502;2023-02-28T14:36:04;7.27;;;6.57;;
32407;SDS011;18869;55.970;37.502;2023-02-28T14:38:37;7.37;;;6.77;;
32407;SDS011;18869;55.970;37.502;2023-02-28T14:41:18;7.10;;;6.50;;
32407;SDS011;18869;55.970;37.502;2023-02-28T14:43:48;6.57;;;5.97;;
32407;SDS011;18869;55.970;37.502;2023-02-28T14:46:18;7.60;;;6.50;;
32407;SDS011;18869;55.970;37.502;2023-02-28T14:48:47;7.30;;;6.40;;
32407;SDS011;18869;55.970;37.502;2023-02-28T14:51:18;6.33;;;5.73;;
32407;SDS011;18869;55.970;37.502;2023-02-28T14:53:48;7.33;;;6.50;;
32407;SDS011;18869;55.970;37.502;2023-02-28T14:56:19;7.13;;;6.53;;
32407;SDS011;18869;55.970;37.502;2023-02-28T14:58:51;7.00;;;6.37;;
32407;SDS011;18869;55.970;37.502;2023-02-28T15:01:20;7.03;;;6.33;;
32407;SDS011;18869;55.970;37.502;2023-02-28T15:03:58;7.80;;;7.00;;
32407;SDS011;18869;55.970;37.502;2023-02-28T15:06:31;6.13;;;5.63;;
32407;SDS011;18869;55.970;37.502;2023-02-28T15:09:13;6.53;;;5.93;;
32407;SDS011;18869;55.970;37.502;2023-02-28T15:11:45;6.97;;;6.37;;
32407;SDS011;18869;55.970;37.502;2023-02-28T15:14:19;7.60;;;5.73;;
32407;SDS011;18869;55.970;37.502;2023-02-28T15:16:48;6.10;;;5.50;;
32407;SDS011;18869;55.970;37.502;2023-02-28T15:19:21;6.10;;;5.60;;
32407;SDS011;18869;55.970;37.502;2023-02-28T15:21:51;6.27;;;5.77;;
32407;SDS011;18869;55.970;37.502;2023-02-28T15:24:21;7.00;;;5.90;;
32407;SDS011;18869;55.970;37.502;2023-02-28T15:26:58;6.97;;;6.33;;
32407;SDS011;18869;55.970;37.502;2023-02-28T15:29:29;6.67;;;6.07;;